createdAt,value
2018-04-12T00:00:06.899Z,10.10
2018-04-12T00:02:38.070Z,10.10
2018-04-12T00:05:09.070Z,10.00
2018-04-12T00:07:40.150Z,10.00
2018-04-12T00:10:11.187Z,10.00
2018-04-12T00:12:41.529Z,9.90
2018-04-12T00:15:12.509Z,9.70
2018-04-12T00:17:42.791Z,9.70
2018-04-12T00:20:13.023Z,9.60
2018-04-12T00:22:44.104Z,9.70
2018-04-12T00:25:14.389Z,9.70
2018-04-12T00:27:44.757Z,9.70
2018-04-12T00:30:15.717Z,9.30
2018-04-12T00:32:46.674Z,9.40
2018-04-12T00:35:17.632Z,9.70
2018-04-12T00:37:47.897Z,9.80
2018-04-12T00:40:18.847Z,9.60
2018-04-12T00:42:49.935Z,9.50
2018-04-12T00:45:20.917Z,9.60
2018-04-12T00:47:51.994Z,9.40
2018-04-12T00:50:22.155Z,9.40
2018-04-12T00:52:53.175Z,8.90
2018-04-12T00:55:23.381Z,8.90
2018-04-12T00:57:54.340Z,8.90
2018-04-12T01:00:24.441Z,8.90
2018-04-12T01:02:54.643Z,9.00
2018-04-12T01:05:25.621Z,9.00
2018-04-12T01:07:56.633Z,9.10
2018-04-12T01:10:26.801Z,9.10
2018-04-12T01:12:57.744Z,9.30
2018-04-12T01:15:28.780Z,9.20
2018-04-12T01:17:59.709Z,9.20
2018-04-12T01:20:29.929Z,9.10
2018-04-12T01:23:00.065Z,9.20
2018-04-12T01:25:30.172Z,9.10
2018-04-12T01:28:01.490Z,8.60
2018-04-12T01:30:32.454Z,8.90
2018-04-12T01:33:17.534Z,8.90
2018-04-12T01:35:48.487Z,9.00
2018-04-12T01:38:18.692Z,9.00
2018-04-12T01:40:48.802Z,9.00
2018-04-12T01:43:18.910Z,8.60
2018-04-12T01:45:49.095Z,8.50
2018-04-12T01:48:20.086Z,8.60
2018-04-12T01:50:50.213Z,8.50
2018-04-12T01:53:20.287Z,8.50
2018-04-12T01:55:51.169Z,8.70
2018-04-12T01:58:22.380Z,8.80
2018-04-12T02:00:53.318Z,8.80
2018-04-12T02:03:24.266Z,8.70
2018-04-12T02:05:54.349Z,8.70
2018-04-12T02:08:25.254Z,8.70
2018-04-12T02:10:55.517Z,8.70
2018-04-12T02:13:26.601Z,8.60
2018-04-12T02:15:56.763Z,8.60
2018-04-12T02:18:27.751Z,8.70
2018-04-12T02:20:57.865Z,8.60
2018-04-12T02:23:28.003Z,8.50
2018-04-12T02:25:59.062Z,8.30
2018-04-12T02:28:29.226Z,8.30
2018-04-12T02:30:59.349Z,8.60
2018-04-12T02:33:30.259Z,8.60
2018-04-12T02:36:01.263Z,8.70
2018-04-12T02:38:32.285Z,8.70
2018-04-12T02:41:02.530Z,8.70
2018-04-12T02:43:33.573Z,8.50
2018-04-12T02:46:03.901Z,8.50
2018-04-12T02:48:34.049Z,9.00
2018-04-12T02:51:05.049Z,9.60
2018-04-12T02:53:36.047Z,9.50
2018-04-12T02:56:06.294Z,9.50
2018-04-12T02:58:37.361Z,9.70
2018-04-12T03:01:07.606Z,9.60
2018-04-12T03:03:38.671Z,9.10
2018-04-12T03:06:09.701Z,9.50
2018-04-12T03:08:39.883Z,9.50
2018-04-12T03:11:09.959Z,10.50
2018-04-12T03:13:40.082Z,11.20
2018-04-12T03:16:10.200Z,11.20
2018-04-12T03:18:40.351Z,11.40
2018-04-12T03:21:11.390Z,11.30
2018-04-12T03:23:41.609Z,11.30
2018-04-12T03:26:12.631Z,11.50
2018-04-12T03:28:43.610Z,11.20
2018-04-12T03:31:14.653Z,11.40
2018-04-12T03:33:45.570Z,11.20
2018-04-12T03:36:15.664Z,11.20
2018-04-12T03:38:45.853Z,11.20
2018-04-12T03:41:15.926Z,11.20
2018-04-12T03:43:46.906Z,11.00
2018-04-12T03:46:17.905Z,10.90
2018-04-12T03:48:48.791Z,10.50
2018-04-12T03:51:19.677Z,10.50
2018-04-12T03:53:49.849Z,10.50
2018-04-12T03:56:19.964Z,10.60
2018-04-12T03:58:50.147Z,10.80
2018-04-12T04:01:21.058Z,10.60
2018-04-12T04:03:51.171Z,10.60
2018-04-12T04:06:22.086Z,10.10
2018-04-12T04:08:53.156Z,9.80
2018-04-12T04:11:23.280Z,9.80
2018-04-12T04:13:53.556Z,9.80
2018-04-12T04:16:41.526Z,9.90
2018-04-12T04:19:30.280Z,9.70
2018-04-12T04:22:01.206Z,9.60
2018-04-12T04:24:32.237Z,9.50
2018-04-12T04:27:03.302Z,9.50
2018-04-12T04:29:34.353Z,9.80
2018-04-12T04:32:05.430Z,9.80
2018-04-12T04:34:35.758Z,9.80
2018-04-12T04:37:06.929Z,9.70
2018-04-12T04:39:38.113Z,9.80
2018-04-12T04:42:08.250Z,9.80
2018-04-12T04:44:38.439Z,9.70
2018-04-12T04:47:09.409Z,9.50
2018-04-12T04:49:39.523Z,9.50
2018-04-12T04:52:09.591Z,9.30
2018-04-12T04:54:40.624Z,9.40
2018-04-12T04:57:11.025Z,9.30
2018-04-12T04:59:41.417Z,9.40
2018-04-12T05:02:11.797Z,9.40
2018-04-12T05:04:41.909Z,9.40
2018-04-12T05:07:12.759Z,9.50
2018-04-12T05:09:43.809Z,9.50
2018-04-12T05:12:14.903Z,9.50
2018-04-12T05:14:45.141Z,9.40
2018-04-12T05:17:16.094Z,9.40
2018-04-12T05:19:47.381Z,9.50
2018-04-12T05:22:17.713Z,9.50
2018-04-12T05:24:47.905Z,9.50
2018-04-12T05:27:19.352Z,9.80
2018-04-12T05:29:49.744Z,9.70
2018-04-12T05:32:20.854Z,9.70
2018-04-12T05:34:51.110Z,9.70
2018-04-12T05:37:22.206Z,9.90
2018-04-12T05:39:52.494Z,9.90
2018-04-12T05:42:22.800Z,10.00
2018-04-12T05:44:53.957Z,9.70
2018-04-12T05:47:24.243Z,9.70
2018-04-12T05:49:55.444Z,9.80
2018-04-12T05:52:25.690Z,9.80
2018-04-12T05:54:55.852Z,9.90
2018-04-12T05:57:26.819Z,10.10
2018-04-12T05:59:57.744Z,10.10
2018-04-12T06:02:28.726Z,10.20
2018-04-12T06:04:58.986Z,10.20
2018-04-12T06:07:29.887Z,10.80
2018-04-12T06:10:01.061Z,11.10
2018-04-12T06:12:32.342Z,11.10
2018-04-12T06:15:02.525Z,11.10
2018-04-12T06:17:33.495Z,11.30
2018-04-12T06:20:03.752Z,11.30
2018-04-12T06:22:33.943Z,11.00
2018-04-12T06:25:04.984Z,11.10
2018-04-12T06:27:35.105Z,11.10
2018-04-12T06:30:06.048Z,11.60
2018-04-12T06:32:36.213Z,11.60
2018-04-12T06:35:06.342Z,11.50
2018-04-12T06:37:37.321Z,11.90
2018-04-12T06:40:08.261Z,11.50
2018-04-12T06:42:39.212Z,11.30
2018-04-12T06:45:09.544Z,11.30
2018-04-12T06:47:39.684Z,11.30
2018-04-12T06:50:09.906Z,11.20
2018-04-12T06:52:40.044Z,11.00
2018-04-12T06:55:11.097Z,11.10
2018-04-12T06:57:42.054Z,11.40
2018-04-12T07:00:12.266Z,11.40
2018-04-12T07:02:43.221Z,12.50
2018-04-12T07:05:14.243Z,12.80
2018-04-12T07:07:45.159Z,13.00
2018-04-12T07:10:16.173Z,13.10
2018-04-12T07:12:46.349Z,13.10
2018-04-12T07:15:16.530Z,13.30
2018-04-12T07:17:47.599Z,13.60
2018-04-12T07:20:18.550Z,13.40
2018-04-12T07:22:49.494Z,13.50
2018-04-12T07:25:20.409Z,13.10
2018-04-12T07:27:51.390Z,13.00
2018-04-12T07:30:21.606Z,13.00
2018-04-12T07:32:51.838Z,12.90
2018-04-12T07:35:22.078Z,12.90
2018-04-12T07:37:52.361Z,13.00
2018-04-12T07:40:23.397Z,12.80
2018-04-12T07:42:54.470Z,12.90
2018-04-12T07:45:24.659Z,12.90
2018-04-12T07:47:54.899Z,13.30
2018-04-12T07:50:25.053Z,13.40
2018-04-12T07:52:55.582Z,13.60
2018-04-12T07:55:25.880Z,13.80
2018-04-12T07:57:56.166Z,13.70
2018-04-12T08:00:27.125Z,13.80
2018-04-12T08:02:58.210Z,13.80
2018-04-12T08:05:29.554Z,13.90
2018-04-12T08:07:59.786Z,13.80
2018-04-12T08:10:30.813Z,13.90
2018-04-12T08:13:00.960Z,13.90
2018-04-12T08:15:32.774Z,14.50
2018-04-12T08:18:02.931Z,14.50
2018-04-12T08:20:34.109Z,15.20
2018-04-12T08:23:05.223Z,15.30
2018-04-12T08:25:36.401Z,15.30
2018-04-12T08:28:07.331Z,15.30
2018-04-12T08:30:38.854Z,15.30
2018-04-12T08:33:09.825Z,15.60
2018-04-12T08:35:40.762Z,15.80
2018-04-12T08:38:11.750Z,15.90
2018-04-12T08:40:42.877Z,15.90
2018-04-12T08:43:13.147Z,16.10
2018-04-12T08:45:44.100Z,16.20
2018-04-12T08:48:15.686Z,16.20
2018-04-12T08:50:46.830Z,16.50
2018-04-12T08:53:17.164Z,16.40
2018-04-12T08:55:48.279Z,16.80
2018-04-12T08:58:18.510Z,16.80
2018-04-12T09:00:48.954Z,16.90
2018-04-12T09:03:19.246Z,17.00
2018-04-12T09:05:49.484Z,17.00
2018-04-12T09:08:19.626Z,17.00
2018-04-12T09:10:49.971Z,16.90
2018-04-12T09:13:20.111Z,16.90
2018-04-12T09:15:51.057Z,16.90
2018-04-12T09:18:22.026Z,16.90
2018-04-12T09:20:52.232Z,16.90
2018-04-12T09:23:23.163Z,17.00
2018-04-12T09:25:53.801Z,17.00
2018-04-12T09:28:23.944Z,16.90
2018-04-12T09:30:54.177Z,17.10
2018-04-12T09:33:24.407Z,17.20
2018-04-12T09:35:54.606Z,17.30
2018-04-12T09:38:24.789Z,17.10
2018-04-12T09:40:55.805Z,17.30
2018-04-12T09:43:26.773Z,17.50
2018-04-12T09:45:57.761Z,17.60
2018-04-12T09:48:28.085Z,17.60
2018-04-12T09:50:58.390Z,17.60
2018-04-12T09:53:28.686Z,17.70
2018-04-12T09:55:58.993Z,17.90
2018-04-12T09:58:30.015Z,18.20
2018-04-12T10:01:01.345Z,18.30
2018-04-12T10:03:31.609Z,18.30
2018-04-12T10:06:05.579Z,18.20
2018-04-12T10:08:35.884Z,18.20
2018-04-12T10:11:06.103Z,18.10
2018-04-12T10:13:36.315Z,18.50
2018-04-12T10:16:06.589Z,18.90
2018-04-12T10:18:37.725Z,18.80
2018-04-12T10:21:08.124Z,18.80
2018-04-12T10:23:38.329Z,18.90
2018-04-12T10:26:08.503Z,18.90
2018-04-12T10:28:38.808Z,18.70
2018-04-12T10:31:09.964Z,18.60
2018-04-12T10:33:40.296Z,18.60
2018-04-12T10:36:10.585Z,18.40
2018-04-12T10:38:40.909Z,18.20
2018-04-12T10:41:11.209Z,18.00
2018-04-12T10:43:42.295Z,18.30
2018-04-12T10:46:12.595Z,18.30
2018-04-12T10:48:42.924Z,18.40
2018-04-12T10:51:13.190Z,18.30
2018-04-12T10:53:43.587Z,18.20
2018-04-12T10:56:13.899Z,17.90
2018-04-12T10:58:44.257Z,17.90
2018-04-12T11:01:15.264Z,18.00
2018-04-12T11:03:45.511Z,18.00
2018-04-12T11:06:16.481Z,18.00
2018-04-12T11:08:47.554Z,17.90
2018-04-12T11:11:17.921Z,17.90
2018-04-12T11:13:48.257Z,17.90
2018-04-12T11:16:19.537Z,17.80
2018-04-12T11:18:50.624Z,17.70
2018-04-12T11:21:21.791Z,17.50
2018-04-12T11:23:52.224Z,17.40
2018-04-12T11:26:23.320Z,17.50
2018-04-12T11:28:53.724Z,17.60
2018-04-12T11:31:24.007Z,17.70
2018-04-12T11:33:55.103Z,17.70
2018-04-12T11:36:26.285Z,17.90
2018-04-12T11:38:57.276Z,17.80
2018-04-12T11:41:27.570Z,17.80
2018-04-12T11:43:57.789Z,18.00
2018-04-12T11:46:28.925Z,18.10
2018-04-12T11:49:00.008Z,18.00
2018-04-12T11:51:30.208Z,18.00
2018-04-12T11:54:00.378Z,18.00
2018-04-12T11:56:31.409Z,17.90
2018-04-12T11:59:02.729Z,17.70
2018-04-12T12:01:33.949Z,17.90
2018-04-12T12:04:04.200Z,17.90
2018-04-12T12:06:35.371Z,18.20
2018-04-12T12:09:06.692Z,18.00
2018-04-12T12:11:37.712Z,18.20
2018-04-12T12:14:08.710Z,18.20
2018-04-12T12:16:40.024Z,17.90
2018-04-12T12:19:10.163Z,17.80
2018-04-12T12:21:40.348Z,17.70
2018-04-12T12:24:10.663Z,17.70
2018-04-12T12:26:41.085Z,17.70
2018-04-12T12:29:11.261Z,17.80
2018-04-12T12:31:42.494Z,17.70
2018-04-12T12:34:13.562Z,17.60
2018-04-12T12:36:44.574Z,17.80
2018-04-12T12:39:20.170Z,17.70
2018-04-12T12:41:53.778Z,17.80
2018-04-12T12:44:23.924Z,17.80
2018-04-12T12:46:54.249Z,17.60
2018-04-12T12:49:25.385Z,17.80
2018-04-12T12:51:55.791Z,17.80
2018-04-12T12:54:27.106Z,17.30
2018-04-12T12:56:57.382Z,17.30
2018-04-12T12:59:30.929Z,17.20
2018-04-12T13:02:02.308Z,17.20
2018-04-12T13:04:33.474Z,17.20
2018-04-12T13:25:39.777Z,17.00
2018-04-12T13:28:10.035Z,17.00
2018-04-12T13:30:40.987Z,17.10
2018-04-12T13:33:11.950Z,17.00
2018-04-12T13:35:42.144Z,17.00
2018-04-12T13:38:13.059Z,17.10
2018-04-12T13:40:43.323Z,17.10
2018-04-12T13:43:13.757Z,17.20
2018-04-12T13:45:44.009Z,17.50
2018-04-12T13:48:14.241Z,17.20
2018-04-12T13:50:45.280Z,17.00
2018-04-12T13:53:15.458Z,17.00
2018-04-12T13:55:46.038Z,17.00
2018-04-12T13:58:17.322Z,16.70
2018-04-12T14:00:48.266Z,16.80
2018-04-12T14:03:19.159Z,16.90
2018-04-12T14:05:49.320Z,16.90
2018-04-12T14:08:20.342Z,16.90
2018-04-12T14:10:50.565Z,16.90
2018-04-12T14:13:21.810Z,16.70
2018-04-12T14:15:53.184Z,16.60
2018-04-12T14:18:23.448Z,16.60
2018-04-12T14:20:54.448Z,16.70
2018-04-12T14:23:24.767Z,16.70
2018-04-12T14:25:54.953Z,16.70
2018-04-12T14:28:26.362Z,16.40
2018-04-12T14:30:56.554Z,16.40
2018-04-12T14:33:26.726Z,16.20
2018-04-12T14:35:56.957Z,16.30
2018-04-12T14:38:27.961Z,16.30
2018-04-12T14:40:58.176Z,16.30
2018-04-12T14:43:28.375Z,16.40
2018-04-12T14:45:59.251Z,16.30
2018-04-12T14:48:29.673Z,16.30
2018-04-12T14:51:00.698Z,16.20
2018-04-12T14:53:31.002Z,16.20
2018-04-12T14:56:01.885Z,16.10
2018-04-12T14:58:32.052Z,16.10
2018-04-12T15:01:02.634Z,16.10
2018-04-12T15:03:32.868Z,16.10
2018-04-12T15:06:03.850Z,16.00
2018-04-12T15:08:34.088Z,15.90
2018-04-12T15:11:04.290Z,16.00
2018-04-12T15:13:34.580Z,15.90
2018-04-12T15:16:04.745Z,15.90
2018-04-12T15:18:35.013Z,16.00
2018-04-12T15:21:05.230Z,16.00
2018-04-12T15:23:35.440Z,16.00
2018-04-12T15:26:05.675Z,15.90
2018-04-12T15:28:36.732Z,15.80
2018-04-12T15:31:06.969Z,15.80
2018-04-12T15:33:37.224Z,15.80
2018-04-12T15:36:07.498Z,15.80
2018-04-12T15:38:38.561Z,15.80
2018-04-12T15:41:09.464Z,15.90
2018-04-12T15:43:39.624Z,15.90
2018-04-12T15:46:09.826Z,15.90
2018-04-12T15:48:40.796Z,15.80
2018-04-12T15:51:11.806Z,15.80
2018-04-12T15:53:42.869Z,15.80
2018-04-12T15:56:13.158Z,15.80
2018-04-12T15:58:43.347Z,15.80
2018-04-12T16:01:13.607Z,15.80
2018-04-12T16:03:43.782Z,15.80
2018-04-12T16:06:14.724Z,15.90
2018-04-12T16:08:45.723Z,16.10
2018-04-12T16:11:16.040Z,16.10
2018-04-12T16:13:46.165Z,16.50
2018-04-12T16:16:16.567Z,16.70
2018-04-12T16:18:46.764Z,17.00
2018-04-12T16:21:17.939Z,17.20
2018-04-12T16:23:48.140Z,17.20
2018-04-12T16:26:18.406Z,17.50
2018-04-12T16:28:48.592Z,17.50
2018-04-12T16:31:19.545Z,18.00
2018-04-12T16:33:49.687Z,18.00
2018-04-12T16:36:19.787Z,17.90
2018-04-12T16:38:49.908Z,17.80
2018-04-12T16:41:20.138Z,17.80
2018-04-12T16:43:51.138Z,18.00
2018-04-12T16:46:21.264Z,18.00
2018-04-12T16:48:51.454Z,17.70
2018-04-12T16:51:22.365Z,17.50
2018-04-12T16:53:53.253Z,17.80
2018-04-12T16:56:23.564Z,17.80
2018-04-12T16:58:54.249Z,17.90
2018-04-12T17:01:25.424Z,17.30
2018-04-12T17:03:56.711Z,17.20
2018-04-12T17:06:27.676Z,16.70
2018-04-12T17:08:57.985Z,16.70
2018-04-12T17:11:28.216Z,16.40
2018-04-12T17:13:58.537Z,16.20
2018-04-12T17:16:28.743Z,16.10
2018-04-12T17:18:59.726Z,15.80
2018-04-12T17:21:30.734Z,15.80
2018-04-12T17:24:00.887Z,15.90
2018-04-12T17:26:31.809Z,15.70
2018-04-12T17:29:02.061Z,15.70
2018-04-12T17:31:32.977Z,15.60
2018-04-12T17:34:03.900Z,15.40
2018-04-12T17:36:34.038Z,15.40
2018-04-12T17:39:05.259Z,15.10
2018-04-12T17:41:35.482Z,15.10
2018-04-12T17:44:05.704Z,14.90
2018-04-12T17:46:36.666Z,14.80
2018-04-12T17:49:07.617Z,14.80
2018-04-12T17:51:38.722Z,14.40
2018-04-12T17:54:08.878Z,14.50
2018-04-12T17:56:39.136Z,14.10
2018-04-12T17:59:09.260Z,14.20
2018-04-12T18:01:40.426Z,14.10
2018-04-12T18:04:11.488Z,14.10
2018-04-12T18:06:41.646Z,14.10
2018-04-12T18:09:11.787Z,13.90
2018-04-12T18:11:41.954Z,13.90
2018-04-12T18:14:12.160Z,13.80
2018-04-12T18:16:43.453Z,13.60
2018-04-12T18:19:14.347Z,13.20
2018-04-12T18:21:44.465Z,13.10
2018-04-12T18:24:15.349Z,13.10
2018-04-12T18:26:45.378Z,13.10
2018-04-12T18:29:16.272Z,13.40
2018-04-12T18:31:47.096Z,13.30
2018-04-12T18:34:20.104Z,13.20
2018-04-12T18:36:50.465Z,13.20
2018-04-12T18:39:20.642Z,13.20
2018-04-12T18:41:51.525Z,12.90
2018-04-12T18:44:23.235Z,12.90
2018-04-12T18:46:55.276Z,13.00
2018-04-12T18:49:25.997Z,13.00
2018-04-12T18:51:57.328Z,13.00
2018-04-12T18:54:28.246Z,12.90
2018-04-12T18:56:59.182Z,13.10
2018-04-12T18:59:30.085Z,12.80
2018-04-12T19:02:03.265Z,12.90
2018-04-12T19:04:36.439Z,12.70
2018-04-12T19:07:06.948Z,12.80
2018-04-12T19:09:37.098Z,12.40
2018-04-12T19:12:07.149Z,12.30
2018-04-12T19:14:38.007Z,12.10
2018-04-12T19:17:08.313Z,12.00
2018-04-12T19:19:39.318Z,12.30
2018-04-12T19:22:09.470Z,12.30
2018-04-12T19:24:40.445Z,12.10
2018-04-12T19:27:10.830Z,12.10
2018-04-12T19:29:41.733Z,12.20
2018-04-12T19:32:12.006Z,12.30
2018-04-12T19:34:42.926Z,12.50
2018-04-12T19:37:13.040Z,12.40
2018-04-12T19:39:43.961Z,12.30
2018-04-12T19:42:14.948Z,12.00
2018-04-12T19:44:46.296Z,11.90
2018-04-12T19:47:17.345Z,11.70
2018-04-12T19:49:48.396Z,11.60
2018-04-12T19:52:18.559Z,11.60
2018-04-12T19:54:48.723Z,11.70
2018-04-12T19:57:18.831Z,11.70
2018-04-12T19:59:49.077Z,11.80
2018-04-12T20:02:20.063Z,11.80
2018-04-12T20:04:51.039Z,11.60
2018-04-12T20:07:22.060Z,11.60
2018-04-12T20:09:52.191Z,11.60
2018-04-12T20:12:23.227Z,12.10
2018-04-12T20:14:54.154Z,11.70
2018-04-12T20:17:25.114Z,11.80
2018-04-12T20:19:56.266Z,11.80
2018-04-12T20:22:26.370Z,11.90
2018-04-12T20:24:58.104Z,11.80
2018-04-12T20:27:28.495Z,11.70
2018-04-12T20:29:58.662Z,11.90
2018-04-12T20:32:29.611Z,11.70
2018-04-12T20:35:00.542Z,11.60
2018-04-12T20:37:30.887Z,11.60
2018-04-12T20:40:00.956Z,11.30
2018-04-12T20:42:31.829Z,11.50
2018-04-12T20:45:01.918Z,11.50
2018-04-12T20:47:32.858Z,11.40
2018-04-12T20:50:03.010Z,11.40
2018-04-12T20:52:33.483Z,11.30
2018-04-12T20:55:03.714Z,11.10
2018-04-12T20:57:34.687Z,11.50
2018-04-12T21:00:05.847Z,11.20
2018-04-12T21:02:35.997Z,11.20
2018-04-12T21:05:07.093Z,11.20
2018-04-12T21:07:38.168Z,11.20
2018-04-12T21:10:08.359Z,11.10
2018-04-12T21:12:39.185Z,11.20
2018-04-12T21:15:10.344Z,11.10
2018-04-12T21:17:40.518Z,11.10
2018-04-12T21:20:11.577Z,11.10
2018-04-12T21:22:42.492Z,11.40
2018-04-12T21:25:13.338Z,11.20
2018-04-12T21:27:44.351Z,11.20
2018-04-12T21:30:14.516Z,11.30
2018-04-12T21:32:45.398Z,11.20
2018-04-12T21:35:15.448Z,11.20
2018-04-12T21:37:45.507Z,11.30
2018-04-12T21:40:15.646Z,11.40
2018-04-12T21:42:46.893Z,11.20
2018-04-12T21:45:16.967Z,11.20
2018-04-12T21:47:47.874Z,11.10
2018-04-12T21:50:17.936Z,11.10
2018-04-12T21:52:49.518Z,11.00
2018-04-12T21:55:19.656Z,11.00
2018-04-12T21:57:49.737Z,11.10
2018-04-12T22:00:21.759Z,11.20
2018-04-12T22:02:52.700Z,11.20
2018-04-12T22:05:23.637Z,11.20
2018-04-12T22:07:53.869Z,11.20
2018-04-12T22:10:24.717Z,11.70
2018-04-12T22:12:55.573Z,11.80
2018-04-12T22:15:26.500Z,11.80
2018-04-12T22:17:57.297Z,11.90
2018-04-12T22:20:28.157Z,12.00
2018-04-12T22:22:59.086Z,12.10
2018-04-12T22:25:30.063Z,12.10
2018-04-12T22:28:00.124Z,12.10
2018-04-12T22:30:30.273Z,12.00
2018-04-12T22:33:00.415Z,11.90
2018-04-12T22:35:31.233Z,12.00
2018-04-12T22:38:02.868Z,11.90
2018-04-12T22:40:33.816Z,12.00
2018-04-12T22:43:05.053Z,12.10
2018-04-12T22:45:35.937Z,12.10
2018-04-12T22:48:06.017Z,12.00
2018-04-12T22:50:36.106Z,12.00
2018-04-12T22:53:07.915Z,12.00
2018-04-12T22:55:39.062Z,11.90
2018-04-12T22:58:10.012Z,12.00
2018-04-12T23:00:40.097Z,12.00
2018-04-12T23:03:11.191Z,11.90
2018-04-12T23:05:41.358Z,11.80
2018-04-12T23:08:11.502Z,11.90
2018-04-12T23:10:42.230Z,11.90
2018-04-12T23:13:12.333Z,11.80
2018-04-12T23:15:42.724Z,11.60
2018-04-12T23:18:13.630Z,11.30
2018-04-12T23:20:43.826Z,11.30
2018-04-12T23:23:14.737Z,11.00
2018-04-12T23:25:44.829Z,11.00
2018-04-12T23:28:15.058Z,10.60
2018-04-12T23:30:46.009Z,10.90
2018-04-12T23:33:16.941Z,10.90
2018-04-12T23:35:47.292Z,10.80
2018-04-12T23:38:17.360Z,10.80
2018-04-12T23:40:47.657Z,10.70
2018-04-12T23:43:17.678Z,10.70
2018-04-12T23:45:47.766Z,10.50
2018-04-12T23:48:18.708Z,10.40
2018-04-12T23:50:48.768Z,10.40
2018-04-12T23:53:18.918Z,10.50
2018-04-12T23:55:49.786Z,10.30
2018-04-12T23:58:20.766Z,10.30
